createdAt,value
2022-08-27T00:00:44.839Z,97114.38
2022-08-27T00:03:11.546Z,97130.66
2022-08-27T00:05:38.200Z,97125.53
2022-08-27T00:08:05.821Z,97120.38
2022-08-27T00:10:33.881Z,97113.50
2022-08-27T00:13:00.443Z,97110.94
2022-08-27T00:15:27.220Z,97111.81
2022-08-27T00:17:53.755Z,97103.25
2022-08-27T00:20:21.290Z,97101.53
2022-08-27T00:22:47.838Z,97107.50
2022-08-27T00:25:14.667Z,97113.53
2022-08-27T00:27:41.272Z,97116.97
2022-08-27T00:30:09.687Z,97122.94
2022-08-27T00:32:36.258Z,97132.38
2022-08-27T00:35:02.788Z,97128.06
2022-08-27T00:37:29.321Z,97134.09
2022-08-27T00:39:55.919Z,97139.22
2022-08-27T00:42:22.795Z,97119.44
2022-08-27T00:44:49.429Z,97141.81
2022-08-27T00:47:19.933Z,97141.81
2022-08-27T00:49:52.612Z,97128.88
2022-08-27T00:52:19.065Z,97145.25
2022-08-27T00:54:45.603Z,97146.94
2022-08-27T00:57:12.226Z,97155.53
2022-08-27T00:59:38.784Z,97157.22
2022-08-27T01:02:20.548Z,97156.38
2022-08-27T01:05:15.316Z,97157.22
2022-08-27T01:07:43.024Z,97160.69
2022-08-27T01:10:12.428Z,97162.38
2022-08-27T01:12:39.031Z,97160.69
2022-08-27T01:15:08.602Z,97158.94
2022-08-27T01:17:38.335Z,97167.53
2022-08-27T01:20:09.268Z,97170.97
2022-08-27T01:22:37.440Z,97167.50
2022-08-27T01:25:12.181Z,97181.25
2022-08-27T01:27:38.768Z,97180.38
2022-08-27T01:30:06.649Z,97184.66
2022-08-27T01:32:34.214Z,97181.25
2022-08-27T01:35:01.296Z,97182.06
2022-08-27T01:37:28.030Z,97182.09
2022-08-27T01:39:55.827Z,97181.25
2022-08-27T01:42:28.853Z,97181.22
2022-08-27T01:44:58.611Z,97189.78
2022-08-27T01:47:30.531Z,97197.50
2022-08-27T01:49:58.487Z,97200.06
2022-08-27T01:52:26.327Z,97189.75
2022-08-27T01:54:53.076Z,97199.25
2022-08-27T01:57:23.005Z,97194.94
2022-08-27T01:59:52.341Z,97191.50
2022-08-27T02:02:18.988Z,97201.81
2022-08-27T02:04:45.638Z,97202.66
2022-08-27T02:07:12.229Z,97196.66
2022-08-27T02:09:38.808Z,97200.94
2022-08-27T02:12:05.681Z,97182.88
2022-08-27T02:14:32.234Z,97190.66
2022-08-27T02:16:58.768Z,97189.78
2022-08-27T02:19:25.372Z,97190.66
2022-08-27T02:21:52.609Z,97188.94
2022-08-27T02:24:19.193Z,97184.63
2022-08-27T02:26:45.714Z,97188.94
2022-08-27T02:29:12.351Z,97187.22
2022-08-27T02:31:39.011Z,97180.38
2022-08-27T02:34:05.611Z,97177.78
2022-08-27T02:36:32.198Z,97174.38
2022-08-27T02:38:59.033Z,97175.22
2022-08-27T02:41:25.654Z,97184.66
2022-08-27T02:43:52.188Z,97166.59
2022-08-27T02:46:18.818Z,97166.63
2022-08-27T02:48:45.486Z,97158.88
2022-08-27T02:51:12.094Z,97170.06
2022-08-27T02:53:38.709Z,97166.63
2022-08-27T02:56:06.341Z,97164.94
2022-08-27T02:58:33.816Z,97159.78
2022-08-27T03:01:01.798Z,97162.38
2022-08-27T03:03:31.583Z,97150.34
2022-08-27T03:05:59.083Z,97158.09
2022-08-27T03:08:26.667Z,97155.50
2022-08-27T03:10:55.875Z,97149.50
2022-08-27T03:13:23.074Z,97149.50
2022-08-27T03:15:49.753Z,97144.34
2022-08-27T03:18:21.742Z,97145.22
2022-08-27T03:20:52.936Z,97146.91
2022-08-27T03:23:22.548Z,97146.06
2022-08-27T03:25:54.150Z,97141.78
2022-08-27T03:28:23.204Z,97140.09
2022-08-27T03:30:54.656Z,97147.81
2022-08-27T03:33:21.333Z,97145.22
2022-08-27T03:35:51.663Z,97133.16
2022-08-27T03:38:18.737Z,97154.66
2022-08-27T03:40:45.284Z,97147.81
2022-08-27T03:43:12.532Z,97144.38
2022-08-27T03:45:50.390Z,97146.94
2022-08-27T03:48:25.732Z,97143.50
2022-08-27T03:50:52.335Z,97143.50
2022-08-27T03:53:20.408Z,97144.38
2022-08-27T03:55:47.559Z,97138.34
2022-08-27T03:58:14.452Z,97136.66
2022-08-27T04:00:41.143Z,97132.38
2022-08-27T04:03:07.792Z,97133.19
2022-08-27T04:05:34.813Z,97129.78
2022-08-27T04:08:01.427Z,97132.38
2022-08-27T04:10:27.979Z,97128.03
2022-08-27T04:12:59.541Z,97127.22
2022-08-27T04:15:26.244Z,97121.22
2022-08-27T04:17:52.784Z,97122.06
2022-08-27T04:20:35.020Z,97126.34
2022-08-27T04:23:01.908Z,97116.00
2022-08-27T04:25:28.431Z,97126.31
2022-08-27T04:27:54.993Z,97128.94
2022-08-27T04:30:21.554Z,97126.34
2022-08-27T04:32:48.103Z,97136.66
2022-08-27T04:35:14.660Z,97141.78
2022-08-27T04:37:41.299Z,97140.06
2022-08-27T04:40:09.869Z,97140.91
2022-08-27T04:42:36.459Z,97135.78
2022-08-27T04:45:03.344Z,97144.38
2022-08-27T04:47:30.973Z,97143.50
2022-08-27T04:49:57.628Z,97139.22
2022-08-27T04:52:24.917Z,97134.88
2022-08-27T04:54:51.976Z,97140.06
2022-08-27T04:57:18.732Z,97138.28
2022-08-27T04:59:45.567Z,97147.78
2022-08-27T05:02:12.272Z,97147.78
2022-08-27T05:04:40.199Z,97143.47
2022-08-27T05:07:07.312Z,97146.91
2022-08-27T05:09:34.418Z,97149.50
2022-08-27T05:12:01.733Z,97157.22
2022-08-27T05:14:32.634Z,97158.91
2022-08-27T05:16:59.350Z,97160.66
2022-08-27T05:19:26.003Z,97158.88
2022-08-27T05:21:53.871Z,97165.78
2022-08-27T05:24:20.885Z,97165.78
2022-08-27T05:26:47.460Z,97175.22
2022-08-27T05:29:14.352Z,97165.72
2022-08-27T05:31:41.840Z,97181.22
2022-08-27T05:34:10.615Z,97175.22
2022-08-27T05:36:47.923Z,97145.09
2022-08-27T05:39:16.041Z,97152.84
2022-08-27T05:41:43.042Z,97167.50
2022-08-27T05:44:39.084Z,97172.63
2022-08-27T05:46:56.420Z,97146.81
2022-08-27T05:49:22.961Z,97170.06
2022-08-27T05:51:49.537Z,97166.63
2022-08-27T05:54:19.278Z,97171.75
2022-08-27T05:56:46.060Z,97182.03
2022-08-27T05:59:30.873Z,97172.63
2022-08-27T06:02:01.015Z,97169.19
2022-08-27T06:04:27.823Z,97164.03
2022-08-27T06:06:54.682Z,97169.19
2022-08-27T06:09:24.008Z,97146.81
2022-08-27T06:11:50.804Z,97170.06
2022-08-27T06:14:17.339Z,97165.78
2022-08-27T06:16:44.341Z,97164.03
2022-08-27T06:19:14.393Z,97158.91
2022-08-27T06:21:41.904Z,97162.34
2022-08-27T06:24:09.573Z,97146.88
2022-08-27T06:26:36.368Z,97166.63
2022-08-27T06:29:06.296Z,97166.63
2022-08-27T06:31:33.005Z,97165.78
2022-08-27T06:34:00.720Z,97171.75
2022-08-27T06:36:34.199Z,97175.22
2022-08-27T06:39:00.805Z,97184.63
2022-08-27T06:41:27.943Z,97188.06
2022-08-27T06:43:55.252Z,97184.63
2022-08-27T06:46:23.245Z,97180.34
2022-08-27T06:48:53.841Z,97170.91
2022-08-27T06:51:28.288Z,97176.91
2022-08-27T06:53:55.665Z,97182.03
2022-08-27T06:56:22.653Z,97184.63
2022-08-27T06:58:52.701Z,97176.91
2022-08-27T07:01:21.168Z,97176.91
2022-08-27T07:03:49.141Z,97179.47
2022-08-27T07:06:16.485Z,97176.91
2022-08-27T07:08:43.076Z,97177.78
2022-08-27T07:11:10.986Z,97177.78
2022-08-27T07:13:37.878Z,97183.78
2022-08-27T07:16:13.074Z,97184.59
2022-08-27T07:18:40.287Z,97182.91
2022-08-27T07:21:08.103Z,97184.59
2022-08-27T07:23:35.272Z,97184.59
2022-08-27T07:26:02.035Z,97188.03
2022-08-27T07:28:28.725Z,97192.34
2022-08-27T07:30:55.384Z,97193.19
2022-08-27T07:33:22.056Z,97188.91
2022-08-27T07:35:49.459Z,97187.19
2022-08-27T07:38:16.116Z,97192.34
2022-08-27T07:40:42.651Z,97194.06
2022-08-27T07:43:27.703Z,97187.13
2022-08-27T07:45:56.372Z,97202.63
2022-08-27T07:48:23.916Z,97197.44
2022-08-27T07:50:51.899Z,97208.63
2022-08-27T07:53:18.969Z,97210.34
2022-08-27T07:55:45.567Z,97209.50
2022-08-27T07:58:16.776Z,97210.34
2022-08-27T08:00:45.176Z,97208.63
2022-08-27T08:03:12.104Z,97212.06
2022-08-27T08:05:42.955Z,97205.13
2022-08-27T08:08:09.644Z,97214.63
2022-08-27T08:10:36.925Z,97214.63
2022-08-27T08:13:03.657Z,97221.50
2022-08-27T08:15:30.201Z,97222.34
2022-08-27T08:17:56.732Z,97221.50
2022-08-27T08:20:35.869Z,97218.88
2022-08-27T08:23:10.677Z,97229.22
2022-08-27T08:25:38.698Z,97224.06
2022-08-27T08:28:05.494Z,97224.06
2022-08-27T08:30:35.504Z,97228.31
2022-08-27T08:33:02.220Z,97230.91
2022-08-27T08:35:34.895Z,97210.25
2022-08-27T08:38:06.183Z,97226.63
2022-08-27T08:40:35.482Z,97228.34
2022-08-27T08:43:02.085Z,97237.78
2022-08-27T08:45:31.391Z,97232.63
2022-08-27T08:48:10.206Z,97232.63
2022-08-27T08:50:45.044Z,97239.47
2022-08-27T08:53:36.408Z,97237.75
2022-08-27T08:56:04.476Z,97235.22
2022-08-27T08:58:51.016Z,97232.63
2022-08-27T09:01:20.643Z,97230.06
2022-08-27T09:03:59.299Z,97232.59
2022-08-27T09:06:50.260Z,97229.19
2022-08-27T09:09:46.808Z,97242.06
2022-08-27T09:12:19.145Z,97236.03
2022-08-27T09:14:52.572Z,97230.91
2022-08-27T09:17:20.579Z,97231.75
2022-08-27T09:19:47.132Z,97228.34
2022-08-27T09:22:38.375Z,97223.19
2022-08-27T09:25:20.815Z,97221.47
2022-08-27T09:27:48.917Z,97219.75
2022-08-27T09:30:21.061Z,97219.75
2022-08-27T09:33:02.642Z,97217.19
2022-08-27T09:35:34.440Z,97216.34
2022-08-27T09:38:01.609Z,97213.75
2022-08-27T09:40:33.228Z,97206.03
2022-08-27T09:43:15.906Z,97180.19
2022-08-27T09:46:19.228Z,97205.19
2022-08-27T09:48:45.784Z,97203.47
2022-08-27T09:51:16.557Z,97188.81
2022-08-27T09:53:51.307Z,97202.59
2022-08-27T09:56:47.304Z,97203.47
2022-08-27T09:59:22.659Z,97206.03
2022-08-27T10:02:16.318Z,97200.88
2022-08-27T10:04:51.170Z,97200.03
2022-08-27T10:07:42.208Z,97206.03
2022-08-27T10:10:10.682Z,97209.47
2022-08-27T10:12:51.093Z,97206.03
2022-08-27T10:15:17.836Z,97210.31
2022-08-27T10:18:08.277Z,97218.03
2022-08-27T10:20:43.464Z,97219.78
2022-08-27T10:23:34.069Z,97212.88
2022-08-27T10:26:12.916Z,97202.59
2022-08-27T10:29:13.548Z,97206.91
2022-08-27T10:32:03.976Z,97202.53
2022-08-27T10:34:44.179Z,97202.56
2022-08-27T10:37:40.288Z,97212.06
2022-08-27T10:40:23.884Z,97195.69
2022-08-27T10:43:12.509Z,97210.31
2022-08-27T10:45:57.841Z,97209.47
2022-08-27T10:48:33.292Z,97218.03
2022-08-27T10:51:19.817Z,97225.75
2022-08-27T10:54:11.961Z,97228.31
2022-08-27T10:56:48.312Z,97216.34
2022-08-27T10:59:38.152Z,97222.34
2022-08-27T11:02:44.304Z,97224.06
2022-08-27T11:05:21.226Z,97231.75
2022-08-27T11:07:52.497Z,97227.47
2022-08-27T11:10:32.633Z,97238.59
2022-08-27T11:13:04.121Z,97233.47
2022-08-27T11:15:32.840Z,97230.06
2022-08-27T11:18:11.535Z,97225.75
2022-08-27T11:20:43.532Z,97224.06
2022-08-27T11:23:18.858Z,97220.59
2022-08-27T11:25:55.664Z,97204.28
2022-08-27T11:28:41.867Z,97222.34
2022-08-27T11:31:23.668Z,97213.78
2022-08-27T11:34:07.914Z,97208.63
2022-08-27T11:36:54.186Z,97199.22
2022-08-27T11:39:58.479Z,97194.06
2022-08-27T11:42:43.040Z,97193.19
2022-08-27T11:45:18.901Z,97198.34
2022-08-27T11:48:18.930Z,97189.75
2022-08-27T11:50:58.617Z,97188.03
2022-08-27T11:53:28.625Z,97185.47
2022-08-27T11:55:55.338Z,97182.91
2022-08-27T11:58:21.829Z,97185.47
2022-08-27T12:00:48.603Z,97185.50
2022-08-27T12:03:24.275Z,97184.63
2022-08-27T12:05:53.700Z,97193.22
2022-08-27T12:08:22.974Z,97181.22
2022-08-27T12:11:08.398Z,97182.03
2022-08-27T12:14:06.311Z,97173.47
2022-08-27T12:16:38.731Z,97182.03
2022-08-27T12:19:17.788Z,97180.34
2022-08-27T12:21:50.200Z,97179.47
2022-08-27T12:24:49.896Z,97183.78
2022-08-27T12:27:24.392Z,97188.91
2022-08-27T12:30:00.080Z,97183.78
2022-08-27T12:32:53.003Z,97183.78
2022-08-27T12:35:31.723Z,97184.63
2022-08-27T12:38:16.105Z,97178.63
2022-08-27T12:40:54.710Z,97175.19
2022-08-27T12:43:22.301Z,97134.66
2022-08-27T12:45:51.657Z,97176.88
2022-08-27T12:48:20.684Z,97170.06
2022-08-27T12:50:52.077Z,97172.63
2022-08-27T12:53:40.488Z,97172.63
2022-08-27T12:56:25.385Z,97182.91
2022-08-27T12:59:10.949Z,97177.78
2022-08-27T13:01:47.409Z,97176.91
2022-08-27T13:04:21.397Z,97149.38
2022-08-27T13:06:47.927Z,97175.22
2022-08-27T13:09:14.492Z,97170.91
2022-08-27T13:11:44.933Z,97162.25
2022-08-27T13:14:15.131Z,97175.22
2022-08-27T13:16:53.143Z,97169.19
2022-08-27T13:19:25.432Z,97168.34
2022-08-27T13:21:52.067Z,97169.19
2022-08-27T13:24:28.992Z,97160.66
2022-08-27T13:26:57.209Z,97154.63
2022-08-27T13:29:25.076Z,97142.56
2022-08-27T13:31:51.660Z,97147.78
2022-08-27T13:34:20.134Z,97127.13
2022-08-27T13:37:03.960Z,97146.91
2022-08-27T13:39:30.550Z,97144.34
2022-08-27T13:41:59.214Z,97146.03
2022-08-27T13:44:34.197Z,97145.22
2022-08-27T13:47:02.617Z,97145.19
2022-08-27T13:49:31.742Z,97140.06
2022-08-27T13:52:15.160Z,97135.75
2022-08-27T13:54:46.251Z,97134.03
2022-08-27T13:57:23.660Z,97140.06
2022-08-27T13:59:50.203Z,97134.94
2022-08-27T14:02:24.522Z,97138.34
2022-08-27T14:05:23.467Z,97136.63
2022-08-27T14:07:53.464Z,97135.75
2022-08-27T14:10:25.816Z,97143.47
2022-08-27T14:13:00.678Z,97147.78
2022-08-27T14:15:35.856Z,97142.66
2022-08-27T14:18:03.267Z,97146.03
2022-08-27T14:20:29.959Z,97149.50
2022-08-27T14:22:57.394Z,97147.78
2022-08-27T14:25:23.947Z,97143.47
2022-08-27T14:27:53.027Z,97137.50
2022-08-27T14:30:28.938Z,97140.91
2022-08-27T14:32:58.622Z,97146.91
2022-08-27T14:35:25.715Z,97140.06
2022-08-27T14:37:52.304Z,97136.63
2022-08-27T14:40:19.632Z,97147.78
2022-08-27T14:42:46.234Z,97134.94
2022-08-27T14:45:12.816Z,97139.22
2022-08-27T14:47:39.552Z,97127.16
2022-08-27T14:50:11.123Z,97138.34
2022-08-27T14:52:39.292Z,97133.19
2022-08-27T14:55:10.427Z,97126.34
2022-08-27T14:57:37.281Z,97131.50
2022-08-27T15:00:05.373Z,97125.47
2022-08-27T15:02:31.945Z,97126.34
2022-08-27T15:04:58.591Z,97139.22
2022-08-27T15:07:25.217Z,97132.38
2022-08-27T15:09:51.748Z,97135.78
2022-08-27T15:12:26.490Z,97140.06
2022-08-27T15:14:53.384Z,97128.00
2022-08-27T15:17:34.037Z,97135.78
2022-08-27T15:20:01.412Z,97129.78
2022-08-27T15:22:32.069Z,97128.03
2022-08-27T15:24:58.584Z,97126.31
2022-08-27T15:27:31.949Z,97128.88
2022-08-27T15:30:07.061Z,97123.78
2022-08-27T15:32:36.308Z,97128.91
2022-08-27T15:35:07.967Z,97130.63
2022-08-27T15:37:34.963Z,97132.38
2022-08-27T15:40:02.027Z,97128.03
2022-08-27T15:42:28.635Z,97125.44
2022-08-27T15:44:55.675Z,97125.50
2022-08-27T15:47:22.983Z,97120.28
2022-08-27T15:49:49.511Z,97127.22
2022-08-27T15:52:17.290Z,97140.88
2022-08-27T15:54:44.516Z,97123.78
2022-08-27T15:57:11.100Z,97128.91
2022-08-27T15:59:38.175Z,97128.91
2022-08-27T16:02:05.621Z,97132.38
2022-08-27T16:04:32.531Z,97128.91
2022-08-27T16:06:59.085Z,97128.91
2022-08-27T16:09:25.796Z,97128.03
2022-08-27T16:11:52.367Z,97132.34
2022-08-27T16:14:19.089Z,97140.06
2022-08-27T16:16:45.929Z,97128.03
2022-08-27T16:19:16.479Z,97149.50
2022-08-27T16:21:43.393Z,97128.06
2022-08-27T16:24:10.876Z,97119.47
2022-08-27T16:26:37.711Z,97101.41
2022-08-27T16:29:04.546Z,97122.91
2022-08-27T16:31:32.693Z,97116.03
2022-08-27T16:33:59.903Z,97112.56
2022-08-27T16:36:26.507Z,97113.50
2022-08-27T16:38:53.942Z,97117.75
2022-08-27T16:41:22.492Z,97105.72
2022-08-27T16:43:49.368Z,97118.63
2022-08-27T16:46:16.004Z,97122.91
2022-08-27T16:49:01.581Z,97146.91
2022-08-27T16:51:33.094Z,97132.38
2022-08-27T16:54:02.297Z,97122.03
2022-08-27T16:56:28.849Z,97132.38
2022-08-27T16:58:55.532Z,97133.19
2022-08-27T17:01:22.434Z,97142.66
2022-08-27T17:04:08.454Z,97144.34
2022-08-27T17:06:37.926Z,97140.06
2022-08-27T17:09:06.729Z,97137.50
2022-08-27T17:11:33.325Z,97115.91
2022-08-27T17:14:02.226Z,97130.53
2022-08-27T17:16:30.819Z,97146.03
2022-08-27T17:18:59.103Z,97156.34
2022-08-27T17:21:29.660Z,97151.19
2022-08-27T17:23:59.152Z,97152.06
2022-08-27T17:26:25.779Z,97156.34
2022-08-27T17:28:52.531Z,97161.47
2022-08-27T17:31:30.450Z,97156.28
2022-08-27T17:33:59.387Z,97174.34
2022-08-27T17:36:27.076Z,97165.78
2022-08-27T17:38:54.301Z,97170.06
2022-08-27T17:41:33.816Z,97171.78
2022-08-27T17:44:02.268Z,97164.00
2022-08-27T17:46:28.921Z,97170.06
2022-08-27T17:48:55.573Z,97174.34
2022-08-27T17:51:22.103Z,97163.16
2022-08-27T17:53:58.457Z,97157.09
2022-08-27T17:56:27.281Z,97183.78
2022-08-27T17:58:53.991Z,97184.63
2022-08-27T18:01:28.219Z,97182.88
2022-08-27T18:03:55.956Z,97176.78
2022-08-27T18:06:22.557Z,97198.34
2022-08-27T18:08:49.097Z,97174.22
2022-08-27T18:11:16.725Z,97194.91
2022-08-27T18:13:43.295Z,97200.91
2022-08-27T18:16:10.041Z,97202.63
2022-08-27T18:18:36.642Z,97212.91
2022-08-27T18:21:03.304Z,97217.22
2022-08-27T18:23:34.178Z,97215.47
2022-08-27T18:26:00.747Z,97211.16
2022-08-27T18:28:28.753Z,97215.47
2022-08-27T18:30:55.343Z,97186.13
2022-08-27T18:33:21.907Z,97222.34
2022-08-27T18:35:48.753Z,97224.94
2022-08-27T18:38:18.521Z,97210.28
2022-08-27T18:40:47.306Z,97231.78
2022-08-27T18:43:14.399Z,97233.47
2022-08-27T18:45:41.253Z,97235.22
2022-08-27T18:48:15.579Z,97215.31
2022-08-27T18:50:46.242Z,97240.31
2022-08-27T18:53:14.565Z,97253.22
2022-08-27T18:55:41.211Z,97252.31
2022-08-27T18:58:07.812Z,97264.34
2022-08-27T19:00:34.383Z,97253.91
2022-08-27T19:03:01.744Z,97272.06
2022-08-27T19:05:28.623Z,97273.78
2022-08-27T19:07:56.952Z,97279.75
2022-08-27T19:10:23.473Z,97277.19
2022-08-27T19:12:50.034Z,97288.34
2022-08-27T19:15:16.775Z,97283.22
2022-08-27T19:17:45.223Z,97253.03
2022-08-27T19:20:12.123Z,97284.06
2022-08-27T19:22:38.702Z,97283.22
2022-08-27T19:25:07.257Z,97279.75
2022-08-27T19:27:33.920Z,97286.63
2022-08-27T19:30:00.469Z,97288.34
2022-08-27T19:32:27.002Z,97292.63
2022-08-27T19:34:53.647Z,97284.91
2022-08-27T19:37:22.202Z,97251.22
2022-08-27T19:39:48.757Z,97287.47
2022-08-27T19:42:15.353Z,97286.63
2022-08-27T19:44:41.895Z,97282.34
2022-08-27T19:47:09.559Z,97273.78
2022-08-27T19:49:36.641Z,97276.34
2022-08-27T19:52:08.106Z,97270.34
2022-08-27T19:54:43.165Z,97276.38
2022-08-27T19:57:18.524Z,97272.91
2022-08-27T19:59:45.202Z,97259.19
2022-08-27T20:02:12.543Z,97270.34
2022-08-27T20:04:55.772Z,97267.78
2022-08-27T20:07:26.453Z,97271.22
2022-08-27T20:09:53.059Z,97279.75
2022-08-27T20:12:21.840Z,97307.22
2022-08-27T20:14:49.280Z,97277.19
2022-08-27T20:17:18.677Z,97277.19
2022-08-27T20:19:45.293Z,97275.50
2022-08-27T20:22:13.130Z,97274.63
2022-08-27T20:24:39.684Z,97259.16
2022-08-27T20:27:06.225Z,97272.91
2022-08-27T20:29:33.137Z,97274.63
2022-08-27T20:32:00.211Z,97266.88
2022-08-27T20:34:29.442Z,97268.63
2022-08-27T20:36:56.072Z,97267.75
2022-08-27T20:39:22.768Z,97272.91
2022-08-27T20:41:49.296Z,97276.34
2022-08-27T20:44:17.037Z,97270.34
2022-08-27T20:46:43.560Z,97272.06
2022-08-27T20:49:15.445Z,97264.34
2022-08-27T20:51:51.151Z,97269.47
2022-08-27T20:54:28.509Z,97267.75
2022-08-27T20:56:55.041Z,97272.06
2022-08-27T20:59:39.848Z,97265.22
2022-08-27T21:02:07.530Z,97263.50
2022-08-27T21:04:41.686Z,97264.34
2022-08-27T21:07:08.240Z,97266.06
2022-08-27T21:09:34.810Z,97258.34
2022-08-27T21:12:01.423Z,97266.06
2022-08-27T21:14:27.996Z,97269.47
2022-08-27T21:16:54.712Z,97271.22
2022-08-27T21:19:21.343Z,97263.50
2022-08-27T21:21:47.890Z,97260.94
2022-08-27T21:24:14.517Z,97261.75
2022-08-27T21:26:41.095Z,97263.50
2022-08-27T21:29:07.619Z,97268.63
2022-08-27T21:31:34.229Z,97276.34
2022-08-27T21:34:00.939Z,97264.31
2022-08-27T21:36:27.516Z,97266.88
2022-08-27T21:38:54.126Z,97275.47
2022-08-27T21:41:20.935Z,97267.75
2022-08-27T21:43:47.535Z,97269.47
2022-08-27T21:46:14.223Z,97266.06
2022-08-27T21:48:40.790Z,97276.34
2022-08-27T21:51:10.888Z,97278.94
2022-08-27T21:53:37.541Z,97290.06
2022-08-27T21:56:04.149Z,97288.34
2022-08-27T21:58:30.751Z,97297.75
2022-08-27T22:00:57.388Z,97302.06
2022-08-27T22:03:24.295Z,97294.34
2022-08-27T22:05:50.885Z,97299.50
2022-08-27T22:08:18.560Z,97296.94
2022-08-27T22:10:46.139Z,97295.19
2022-08-27T22:13:13.187Z,97298.63
2022-08-27T22:15:40.049Z,97299.50
2022-08-27T22:18:06.609Z,97297.75
2022-08-27T22:20:33.189Z,97305.47
2022-08-27T22:22:59.984Z,97302.06
2022-08-27T22:25:27.160Z,97303.75
2022-08-27T22:27:54.105Z,97310.63
2022-08-27T22:30:20.960Z,97307.22
2022-08-27T22:32:47.567Z,97308.94
2022-08-27T22:35:14.392Z,97314.91
2022-08-27T22:37:41.055Z,97317.50
2022-08-27T22:40:12.100Z,97311.50
2022-08-27T22:42:47.071Z,97313.19
2022-08-27T22:45:13.673Z,97310.59
2022-08-27T22:47:40.208Z,97308.06
2022-08-27T22:50:07.321Z,97306.34
2022-08-27T22:52:33.853Z,97314.94
2022-08-27T22:55:00.439Z,97307.19
2022-08-27T22:57:26.972Z,97312.34
2022-08-27T22:59:53.535Z,97306.34
2022-08-27T23:02:20.092Z,97307.22
2022-08-27T23:04:54.983Z,97302.91
2022-08-27T23:07:22.851Z,97301.19
2022-08-27T23:09:49.401Z,97296.94
2022-08-27T23:12:15.954Z,97300.31
2022-08-27T23:14:42.635Z,97297.75
2022-08-27T23:17:09.275Z,97299.50
2022-08-27T23:19:35.809Z,97302.91
2022-08-27T23:22:02.340Z,97297.75
2022-08-27T23:24:34.177Z,97294.34
2022-08-27T23:27:19.341Z,97293.47
2022-08-27T23:29:47.064Z,97296.06
2022-08-27T23:32:14.205Z,97300.34
2022-08-27T23:34:40.777Z,97291.78
2022-08-27T23:37:07.337Z,97289.22
2022-08-27T23:39:33.857Z,97292.63
2022-08-27T23:42:00.409Z,97286.63
2022-08-27T23:44:29.181Z,97287.47
2022-08-27T23:46:58.197Z,97294.34
2022-08-27T23:49:24.735Z,97287.47
2022-08-27T23:51:51.266Z,97294.34
2022-08-27T23:54:17.848Z,97293.47
2022-08-27T23:56:44.372Z,97289.22
2022-08-27T23:59:10.956Z,97296.06
